createdAt,value
2022-09-10T00:00:58.196Z,101914.03
2022-09-10T00:06:03.959Z,101924.16
2022-09-10T00:11:10.019Z,101917.91
2022-09-10T00:16:14.737Z,101924.66
2022-09-10T00:21:19.953Z,101920.47
2022-09-10T00:26:24.943Z,101921.47
2022-09-10T00:31:27.748Z,101916.06
2022-09-10T00:36:33.939Z,101910.66
2022-09-10T00:41:39.430Z,101905.13
2022-09-10T00:46:47.623Z,101905.44
2022-09-10T00:51:52.865Z,101908.97
2022-09-10T00:56:59.806Z,101900.38
2022-09-10T01:02:02.914Z,101912.69
2022-09-10T01:07:07.479Z,101910.13
2022-09-10T01:12:35.987Z,101914.69
2022-09-10T01:17:47.111Z,101911.81
2022-09-10T01:23:34.412Z,101909.47
2022-09-10T01:29:02.448Z,101918.06
2022-09-10T01:34:20.409Z,101922.63
2022-09-10T01:39:24.628Z,101919.09
2022-09-10T01:44:44.814Z,101899.16
2022-09-10T01:50:03.376Z,101910.31
2022-09-10T01:55:20.999Z,101916.56
2022-09-10T02:00:25.997Z,101930.56
2022-09-10T02:05:31.814Z,101924.31
2022-09-10T02:10:34.821Z,101925.50
2022-09-10T02:15:41.875Z,101921.44
2022-09-10T02:21:07.399Z,101922.44
2022-09-10T02:26:09.795Z,101927.69
2022-09-10T02:31:12.125Z,101926.34
2022-09-10T02:36:14.137Z,101928.53
2022-09-10T02:41:17.435Z,101925.31
2022-09-10T02:46:20.126Z,101927.19
2022-09-10T02:51:25.825Z,101920.44
2022-09-10T02:56:27.968Z,101926.00
2022-09-10T03:01:30.174Z,101929.69
2022-09-10T03:06:38.499Z,101922.78
2022-09-10T03:11:40.825Z,101914.00
2022-09-10T03:16:43.523Z,101914.69
2022-09-10T03:21:47.683Z,101918.38
2022-09-10T03:26:49.778Z,101918.53
2022-09-10T03:31:51.910Z,101909.59
2022-09-10T03:36:55.859Z,101907.75
2022-09-10T03:41:58.775Z,101910.44
2022-09-10T03:47:03.416Z,101910.44
2022-09-10T03:52:06.044Z,101912.63
2022-09-10T03:57:11.889Z,101909.94
2022-09-10T04:02:14.953Z,101898.13
2022-09-10T04:07:17.154Z,101894.59
2022-09-10T04:12:19.308Z,101899.16
2022-09-10T04:17:21.693Z,101896.44
2022-09-10T04:22:24.963Z,101903.53
2022-09-10T04:27:28.693Z,101901.50
2022-09-10T04:32:31.465Z,101912.47
2022-09-10T04:37:34.877Z,101916.34
2022-09-10T04:42:38.883Z,101909.78
2022-09-10T04:47:41.354Z,101911.78
2022-09-10T04:52:43.574Z,101897.28
2022-09-10T04:57:46.002Z,101904.19
2022-09-10T05:02:49.076Z,101918.19
2022-09-10T05:07:53.662Z,101920.59
2022-09-10T05:12:55.742Z,101915.50
2022-09-10T05:18:00.301Z,101922.44
2022-09-10T05:23:03.168Z,101926.28
2022-09-10T05:28:06.498Z,101928.31
2022-09-10T05:33:08.436Z,101936.75
2022-09-10T05:38:12.209Z,101942.81
2022-09-10T05:43:14.649Z,101944.50
2022-09-10T05:48:20.460Z,101944.00
2022-09-10T05:53:23.900Z,101957.34
2022-09-10T05:58:27.922Z,101972.84
2022-09-10T06:03:30.179Z,101971.28
2022-09-10T06:08:35.937Z,101975.53
2022-09-10T06:13:45.252Z,101977.09
2022-09-10T06:18:48.215Z,101989.03
2022-09-10T06:23:55.624Z,101994.44
2022-09-10T06:28:59.944Z,101971.94
2022-09-10T06:34:02.937Z,101997.44
2022-09-10T06:39:07.407Z,102002.03
2022-09-10T06:44:22.702Z,101988.84
2022-09-10T06:49:32.343Z,101995.22
2022-09-10T06:54:34.624Z,101994.38
2022-09-10T06:59:51.728Z,101998.09
2022-09-10T07:04:54.927Z,102003.19
2022-09-10T07:09:57.032Z,102017.81
2022-09-10T07:14:59.258Z,102019.53
2022-09-10T07:20:04.639Z,102014.47
2022-09-10T07:25:15.109Z,102024.03
2022-09-10T07:30:47.670Z,102029.06
2022-09-10T07:35:51.210Z,102029.75
2022-09-10T07:40:54.752Z,102036.34
2022-09-10T07:46:00.007Z,102032.78
2022-09-10T07:51:08.282Z,102046.09
2022-09-10T07:56:11.906Z,102044.25
2022-09-10T08:01:17.046Z,102046.94
2022-09-10T08:06:19.597Z,102052.34
2022-09-10T08:11:24.451Z,102056.72
2022-09-10T08:16:29.492Z,102057.72
2022-09-10T08:21:37.406Z,102067.69
2022-09-10T08:26:40.789Z,102062.28
2022-09-10T08:31:42.969Z,102071.22
2022-09-10T08:36:53.375Z,102076.63
2022-09-10T08:42:01.509Z,102076.63
2022-09-10T08:47:14.981Z,102078.47
2022-09-10T08:52:38.507Z,102079.31
2022-09-10T08:57:51.731Z,102087.28
2022-09-10T09:03:01.469Z,102088.13
2022-09-10T09:08:06.443Z,102104.16
2022-09-10T09:13:29.369Z,102087.28
2022-09-10T09:18:50.883Z,102082.72
2022-09-10T09:24:13.634Z,102089.66
2022-09-10T09:29:56.589Z,102086.78
2022-09-10T09:35:37.225Z,102084.09
2022-09-10T09:40:50.892Z,102081.56
2022-09-10T09:45:54.733Z,102077.09
2022-09-10T09:51:00.539Z,102082.81
2022-09-10T09:56:07.477Z,102072.16
2022-09-10T10:01:15.818Z,102079.66
2022-09-10T10:06:23.937Z,102060.63
2022-09-10T10:11:48.611Z,102071.78
2022-09-10T10:16:55.153Z,102081.38
2022-09-10T10:22:20.728Z,102084.28
2022-09-10T10:27:29.512Z,102065.56
2022-09-10T10:32:39.644Z,102062.88
2022-09-10T10:38:25.403Z,102047.84
2022-09-10T10:43:48.895Z,102040.44
2022-09-10T10:49:04.810Z,102036.06
2022-09-10T10:54:13.119Z,102026.25
2022-09-10T11:00:01.324Z,102031.66
2022-09-10T11:05:18.647Z,102030.66
2022-09-10T11:10:27.588Z,102023.22
2022-09-10T11:15:38.260Z,102019.69
2022-09-10T11:20:56.663Z,102003.47
2022-09-10T11:26:03.924Z,102014.13
2022-09-10T11:31:14.430Z,101998.94
2022-09-10T11:36:25.501Z,101997.94
2022-09-10T11:41:32.087Z,101996.09
2022-09-10T11:46:39.397Z,101992.53
2022-09-10T11:51:42.799Z,101994.72
2022-09-10T11:56:53.054Z,101978.38
2022-09-10T12:02:07.681Z,101973.16
2022-09-10T12:07:39.020Z,101976.88
2022-09-10T12:12:49.436Z,101974.19
2022-09-10T12:18:07.568Z,101982.09
2022-09-10T12:23:19.861Z,101978.53
2022-09-10T12:28:54.237Z,101961.69
2022-09-10T12:33:57.938Z,101957.81
2022-09-10T12:39:28.615Z,101965.03
2022-09-10T12:44:51.093Z,101956.94
2022-09-10T12:50:03.102Z,101950.56
2022-09-10T12:55:36.323Z,101940.59
2022-09-10T13:00:56.567Z,101942.28
2022-09-10T13:06:02.216Z,101947.69
2022-09-10T13:11:22.109Z,101942.28
2022-09-10T13:16:26.869Z,101936.91
2022-09-10T13:21:28.967Z,101922.41
2022-09-10T13:26:35.545Z,101921.56
2022-09-10T13:31:44.854Z,101922.41
2022-09-10T13:37:05.594Z,101921.56
2022-09-10T13:42:11.065Z,101921.41
2022-09-10T13:47:19.567Z,101922.25
2022-09-10T13:52:34.767Z,101919.34
2022-09-10T13:57:41.150Z,101914.81
2022-09-10T14:02:49.083Z,101915.81
2022-09-10T14:07:51.603Z,101903.88
2022-09-10T14:12:54.984Z,101897.78
2022-09-10T14:17:59.064Z,101887.81
2022-09-10T14:23:04.543Z,101892.75
2022-09-10T14:28:27.743Z,101893.44
2022-09-10T14:33:35.345Z,101885.31
2022-09-10T14:38:40.423Z,101878.94
2022-09-10T14:43:42.763Z,101876.38
2022-09-10T14:49:17.957Z,101865.91
2022-09-10T14:54:19.990Z,101859.69
2022-09-10T14:59:33.199Z,101859.34
2022-09-10T15:04:35.331Z,101865.41
2022-09-10T15:09:37.657Z,101851.41
2022-09-10T15:14:39.980Z,101849.06
2022-09-10T15:19:42.260Z,101844.66
2022-09-10T15:25:08.207Z,101843.81
2022-09-10T15:30:07.901Z,101842.97
2022-09-10T15:35:10.063Z,101842.97
2022-09-10T15:40:12.215Z,101817.66
2022-09-10T15:45:14.325Z,101840.13
2022-09-10T15:50:17.501Z,101835.72
2022-09-10T15:55:19.742Z,101828.66
2022-09-10T16:00:22.193Z,101816.66
2022-09-10T16:05:24.300Z,101816.81
2022-09-10T16:10:26.657Z,101814.09
2022-09-10T16:15:28.860Z,101805.84
2022-09-10T16:20:30.883Z,101797.41
2022-09-10T16:25:33.078Z,101803.19
2022-09-10T16:30:35.489Z,101804.38
2022-09-10T16:35:37.707Z,101809.25
2022-09-10T16:40:39.724Z,101806.22
2022-09-10T16:45:50.157Z,101799.47
2022-09-10T16:50:52.176Z,101809.94
2022-09-10T16:56:01.631Z,101815.66
2022-09-10T17:01:06.693Z,101817.03
2022-09-10T17:06:15.164Z,101816.50
2022-09-10T17:11:19.735Z,101822.44
2022-09-10T17:16:21.839Z,101823.25
2022-09-10T17:21:25.676Z,101815.81
2022-09-10T17:26:28.148Z,101825.78
2022-09-10T17:31:30.960Z,101823.06
2022-09-10T17:36:34.300Z,101819.88
2022-09-10T17:41:36.981Z,101823.75
2022-09-10T17:46:39.538Z,101831.53
2022-09-10T17:51:42.859Z,101822.44
2022-09-10T17:56:44.868Z,101820.56
2022-09-10T18:01:47.787Z,101816.53
2022-09-10T18:06:52.651Z,101822.59
2022-09-10T18:11:56.521Z,101823.25
2022-09-10T18:16:59.061Z,101827.00
2022-09-10T18:22:01.833Z,101827.34
2022-09-10T18:27:05.567Z,101832.91
2022-09-10T18:32:10.186Z,101826.00
2022-09-10T18:37:13.900Z,101827.16
2022-09-10T18:42:16.145Z,101834.56
2022-09-10T18:47:41.322Z,101825.47
2022-09-10T18:52:40.497Z,101839.00
2022-09-10T18:57:42.485Z,101846.56
2022-09-10T19:02:45.842Z,101844.03
2022-09-10T19:07:48.669Z,101841.19
2022-09-10T19:12:52.006Z,101835.41
2022-09-10T19:17:54.161Z,101842.53
2022-09-10T19:22:56.143Z,101855.72
2022-09-10T19:27:58.164Z,101861.78
2022-09-10T19:33:00.215Z,101857.72
2022-09-10T19:38:15.796Z,101870.53
2022-09-10T19:43:24.549Z,101870.53
2022-09-10T19:48:26.656Z,101872.06
2022-09-10T19:53:31.895Z,101885.44
2022-09-10T19:58:35.706Z,101881.03
2022-09-10T20:03:40.089Z,101884.91
2022-09-10T20:08:42.337Z,101884.75
2022-09-10T20:13:45.372Z,101882.38
2022-09-10T20:18:47.285Z,101887.78
2022-09-10T20:23:52.668Z,101889.28
2022-09-10T20:28:57.419Z,101887.28
2022-09-10T20:34:02.346Z,101875.94
2022-09-10T20:39:06.757Z,101883.56
2022-09-10T20:44:10.631Z,101886.56
2022-09-10T20:49:14.212Z,101888.44
2022-09-10T20:54:18.719Z,101891.13
2022-09-10T20:59:24.295Z,101885.72
2022-09-10T21:04:28.944Z,101895.88
2022-09-10T21:09:31.098Z,101893.31
2022-09-10T21:14:33.545Z,101890.78
2022-09-10T21:19:35.600Z,101887.22
2022-09-10T21:24:39.907Z,101885.56
2022-09-10T21:29:41.908Z,101882.03
2022-09-10T21:34:43.956Z,101888.44
2022-09-10T21:39:46.077Z,101871.50
2022-09-10T21:44:48.337Z,101882.19
2022-09-10T21:49:50.369Z,101879.59
2022-09-10T21:54:52.632Z,101881.47
2022-09-10T21:59:54.775Z,101875.22
2022-09-10T22:04:57.484Z,101884.16
2022-09-10T22:09:59.621Z,101893.13
2022-09-10T22:15:01.854Z,101892.41
2022-09-10T22:20:05.323Z,101892.41
2022-09-10T22:25:07.827Z,101899.72
2022-09-10T22:30:10.408Z,101891.59
2022-09-10T22:35:12.423Z,101888.72
2022-09-10T22:40:14.575Z,101889.56
2022-09-10T22:45:17.661Z,101891.41
2022-09-10T22:50:19.538Z,101892.63
2022-09-10T22:55:21.525Z,101896.81
2022-09-10T23:00:23.657Z,101895.97
2022-09-10T23:05:25.687Z,101884.31
2022-09-10T23:10:27.675Z,101879.97
2022-09-10T23:15:33.180Z,101882.81
2022-09-10T23:20:35.134Z,101883.66
2022-09-10T23:25:37.140Z,101884.66
2022-09-10T23:30:39.139Z,101876.72
2022-09-10T23:35:50.105Z,101874.88
2022-09-10T23:40:53.056Z,101880.28
2022-09-10T23:45:55.402Z,101873.19
2022-09-10T23:50:57.828Z,101863.38
2022-09-10T23:55:59.882Z,101863.22
